createdAt,value
2023-02-09T08:59:54.814Z,22.80
2023-02-09T09:02:59.001Z,26.20
2023-02-09T09:05:36.182Z,24.10
2023-02-09T09:08:07.174Z,25.20
2023-02-09T09:10:46.141Z,24.50
2023-02-09T09:13:21.071Z,30.00
2023-02-09T09:16:00.340Z,23.70
2023-02-09T09:18:34.742Z,29.40
2023-02-09T09:21:17.660Z,30.00
2023-02-09T09:24:09.166Z,27.10
2023-02-09T09:26:39.793Z,21.40
2023-02-09T09:29:11.028Z,25.60
2023-02-09T09:32:31.395Z,27.00
2023-02-09T09:35:46.734Z,29.00
2023-02-09T09:38:39.098Z,26.00
2023-02-09T09:41:29.319Z,23.10
2023-02-09T09:59:47.511Z,23.50
2023-02-09T10:06:41.995Z,22.80
2023-02-09T10:40:20.128Z,14.50
2023-02-09T10:43:56.819Z,161.20
2023-02-09T10:52:30.086Z,22.80
2023-02-09T10:57:25.648Z,17.00
2023-02-09T11:00:01.818Z,20.40
2023-02-09T11:03:20.028Z,18.00
2023-02-09T11:06:12.915Z,18.50
2023-02-09T11:09:36.492Z,17.30
2023-02-09T11:25:14.317Z,22.00
2023-02-09T11:32:32.163Z,18.90
2023-02-09T11:37:59.538Z,20.40
2023-02-09T11:41:08.241Z,21.70
2023-02-09T11:43:43.235Z,20.50
2023-02-09T11:46:32.313Z,19.80
2023-02-09T11:52:47.976Z,19.70
2023-02-09T11:55:45.934Z,17.70
2023-02-09T11:58:53.759Z,22.80
2023-02-09T12:26:19.614Z,26.90
2023-02-09T12:36:12.272Z,24.00
2023-02-09T12:42:15.952Z,21.60
2023-02-09T13:02:58.714Z,26.10
2023-02-09T13:10:40.626Z,24.50
2023-02-09T13:13:34.094Z,25.20
2023-02-09T21:16:31.619Z,104.00
2023-02-09T21:19:03.675Z,98.20
2023-02-09T21:21:35.550Z,83.60
2023-02-09T21:24:11.270Z,83.40
2023-02-09T21:26:44.138Z,107.30
2023-02-09T21:29:25.708Z,92.50
2023-02-09T21:32:12.125Z,109.50
2023-02-09T21:34:58.601Z,80.00
2023-02-09T21:37:37.834Z,97.30
2023-02-09T21:40:12.962Z,97.90
2023-02-09T21:42:42.192Z,92.20
2023-02-09T21:45:11.439Z,114.90
2023-02-09T21:47:40.162Z,113.90
2023-02-09T21:50:11.079Z,97.60
2023-02-09T21:52:40.685Z,100.10
2023-02-09T21:57:58.252Z,107.50
2023-02-09T22:00:35.027Z,114.70
2023-02-09T22:03:17.096Z,111.30
2023-02-09T22:05:46.658Z,108.50
2023-02-09T22:08:18.375Z,103.80
2023-02-09T22:10:50.697Z,83.10
2023-02-09T22:13:29.887Z,65.80
2023-02-09T22:16:08.330Z,58.30
2023-02-09T22:18:38.896Z,56.80
2023-02-09T22:21:08.116Z,56.20
2023-02-09T22:23:37.732Z,47.40
2023-02-09T22:26:07.365Z,70.40
2023-02-09T22:28:36.679Z,88.80
2023-02-09T22:31:10.130Z,104.50
2023-02-09T22:36:13.114Z,90.10
2023-02-09T22:38:47.781Z,88.10
2023-02-09T22:41:37.354Z,71.70
2023-02-09T22:44:08.982Z,77.00
2023-02-09T22:46:58.287Z,73.10
2023-02-09T22:49:30.422Z,59.40
2023-02-09T22:52:09.709Z,55.20
2023-02-09T22:54:39.728Z,61.30
2023-02-09T22:57:11.469Z,18.30
2023-02-09T22:59:41.609Z,8.40
2023-02-09T23:02:12.655Z,16.90
2023-02-09T23:04:41.745Z,81.40
2023-02-09T23:07:11.747Z,96.50
2023-02-09T23:09:40.345Z,100.60
2023-02-09T23:12:08.790Z,92.20
2023-02-09T23:14:38.329Z,87.30
2023-02-09T23:17:07.127Z,75.90
2023-02-09T23:19:36.354Z,74.90
2023-02-09T23:22:05.708Z,76.10
2023-02-09T23:24:35.198Z,71.70
2023-02-09T23:27:03.811Z,62.70
2023-02-09T23:29:33.567Z,48.00
2023-02-09T23:32:02.929Z,51.10
2023-02-09T23:34:33.930Z,63.40
2023-02-09T23:37:18.384Z,53.00
2023-02-09T23:39:48.875Z,87.70
2023-02-09T23:42:18.811Z,76.50
2023-02-09T23:44:48.515Z,64.50
2023-02-09T23:47:17.166Z,56.20
2023-02-09T23:49:46.771Z,54.70
2023-02-09T23:52:18.047Z,51.30
2023-02-09T23:54:46.944Z,47.30
2023-02-09T23:57:22.659Z,47.20
2023-02-09T23:59:51.422Z,28.80
